sensor_id;sensor_type;location;lat;lon;timestamp;P1;durP1;ratioP1;P2;durP2;ratioP2
59338;SDS011;45117;50.960;5.500;2022-12-07T00:02:21;30.40;;;14.70;;
59338;SDS011;45117;50.960;5.500;2022-12-07T00:04:48;30.88;;;16.10;;
59338;SDS011;45117;50.960;5.500;2022-12-07T00:07:15;31.45;;;15.55;;
59338;SDS011;45117;50.960;5.500;2022-12-07T00:09:41;31.77;;;16.95;;
59338;SDS011;45117;50.960;5.500;2022-12-07T00:12:08;34.80;;;16.02;;
59338;SDS011;45117;50.960;5.500;2022-12-07T00:14:35;31.80;;;16.10;;
59338;SDS011;45117;50.960;5.500;2022-12-07T00:17:02;28.67;;;15.20;;
59338;SDS011;45117;50.960;5.500;2022-12-07T00:19:28;28.25;;;15.18;;
59338;SDS011;45117;50.960;5.500;2022-12-07T00:21:55;29.50;;;16.83;;
59338;SDS011;45117;50.960;5.500;2022-12-07T00:24:21;28.27;;;15.60;;
59338;SDS011;45117;50.960;5.500;2022-12-07T00:26:48;32.15;;;15.68;;
59338;SDS011;45117;50.960;5.500;2022-12-07T00:29:15;34.00;;;16.25;;
59338;SDS011;45117;50.960;5.500;2022-12-07T00:31:45;28.10;;;16.13;;
59338;SDS011;45117;50.960;5.500;2022-12-07T00:34:12;28.65;;;15.27;;
59338;SDS011;45117;50.960;5.500;2022-12-07T00:36:40;31.85;;;15.77;;
59338;SDS011;45117;50.960;5.500;2022-12-07T00:39:07;32.72;;;16.13;;
59338;SDS011;45117;50.960;5.500;2022-12-07T00:41:33;32.33;;;16.38;;
59338;SDS011;45117;50.960;5.500;2022-12-07T00:44:00;32.13;;;16.90;;
59338;SDS011;45117;50.960;5.500;2022-12-07T00:46:27;33.25;;;16.98;;
59338;SDS011;45117;50.960;5.500;2022-12-07T00:48:55;34.47;;;15.93;;
59338;SDS011;45117;50.960;5.500;2022-12-07T00:51:23;38.97;;;17.52;;
59338;SDS011;45117;50.960;5.500;2022-12-07T00:53:50;29.83;;;16.80;;
59338;SDS011;45117;50.960;5.500;2022-12-07T00:56:18;31.60;;;16.88;;
59338;SDS011;45117;50.960;5.500;2022-12-07T00:58:49;32.78;;;17.27;;
59338;SDS011;45117;50.960;5.500;2022-12-07T01:01:16;28.05;;;15.70;;
59338;SDS011;45117;50.960;5.500;2022-12-07T01:03:42;32.40;;;17.08;;
59338;SDS011;45117;50.960;5.500;2022-12-07T01:06:13;33.00;;;16.95;;
59338;SDS011;45117;50.960;5.500;2022-12-07T01:08:40;31.58;;;17.30;;
59338;SDS011;45117;50.960;5.500;2022-12-07T01:11:07;35.42;;;18.10;;
59338;SDS011;45117;50.960;5.500;2022-12-07T01:13:37;29.38;;;15.35;;
59338;SDS011;45117;50.960;5.500;2022-12-07T01:16:04;31.08;;;16.73;;
59338;SDS011;45117;50.960;5.500;2022-12-07T01:18:33;33.67;;;17.58;;
59338;SDS011;45117;50.960;5.500;2022-12-07T01:21:01;35.05;;;18.02;;
59338;SDS011;45117;50.960;5.500;2022-12-07T01:23:30;34.13;;;18.77;;
59338;SDS011;45117;50.960;5.500;2022-12-07T01:25:57;34.58;;;17.52;;
59338;SDS011;45117;50.960;5.500;2022-12-07T01:28:25;36.60;;;18.00;;
59338;SDS011;45117;50.960;5.500;2022-12-07T01:30:56;35.95;;;18.30;;
59338;SDS011;45117;50.960;5.500;2022-12-07T01:33:23;34.63;;;17.17;;
59338;SDS011;45117;50.960;5.500;2022-12-07T01:35:50;33.65;;;18.08;;
59338;SDS011;45117;50.960;5.500;2022-12-07T01:38:16;33.90;;;17.40;;
59338;SDS011;45117;50.960;5.500;2022-12-07T01:40:44;33.78;;;18.15;;
59338;SDS011;45117;50.960;5.500;2022-12-07T01:43:14;34.75;;;18.10;;
59338;SDS011;45117;50.960;5.500;2022-12-07T01:45:43;31.63;;;18.17;;
59338;SDS011;45117;50.960;5.500;2022-12-07T01:48:10;34.67;;;18.33;;
59338;SDS011;45117;50.960;5.500;2022-12-07T01:50:39;33.92;;;17.85;;
59338;SDS011;45117;50.960;5.500;2022-12-07T01:53:08;32.38;;;17.50;;
59338;SDS011;45117;50.960;5.500;2022-12-07T01:55:37;32.30;;;16.95;;
59338;SDS011;45117;50.960;5.500;2022-12-07T01:58:07;36.40;;;17.48;;
59338;SDS011;45117;50.960;5.500;2022-12-07T02:00:35;32.67;;;18.38;;
59338;SDS011;45117;50.960;5.500;2022-12-07T02:03:04;32.45;;;18.02;;
59338;SDS011;45117;50.960;5.500;2022-12-07T02:05:33;35.47;;;18.60;;
59338;SDS011;45117;50.960;5.500;2022-12-07T02:08:00;38.45;;;19.27;;
59338;SDS011;45117;50.960;5.500;2022-12-07T02:10:29;34.70;;;19.08;;
59338;SDS011;45117;50.960;5.500;2022-12-07T02:12:57;34.50;;;18.35;;
59338;SDS011;45117;50.960;5.500;2022-12-07T02:15:29;37.28;;;19.00;;
59338;SDS011;45117;50.960;5.500;2022-12-07T02:18:05;34.60;;;18.77;;
59338;SDS011;45117;50.960;5.500;2022-12-07T02:20:40;34.80;;;18.70;;
59338;SDS011;45117;50.960;5.500;2022-12-07T02:23:35;36.50;;;18.85;;
59338;SDS011;45117;50.960;5.500;2022-12-07T02:26:17;33.05;;;18.45;;
59338;SDS011;45117;50.960;5.500;2022-12-07T02:28:58;38.53;;;19.23;;
59338;SDS011;45117;50.960;5.500;2022-12-07T02:31:43;34.97;;;18.38;;
59338;SDS011;45117;50.960;5.500;2022-12-07T02:34:13;36.63;;;19.30;;
59338;SDS011;45117;50.960;5.500;2022-12-07T02:36:46;33.42;;;19.00;;
59338;SDS011;45117;50.960;5.500;2022-12-07T02:39:18;38.97;;;18.92;;
59338;SDS011;45117;50.960;5.500;2022-12-07T02:41:50;35.60;;;19.10;;
59338;SDS011;45117;50.960;5.500;2022-12-07T02:44:23;38.47;;;19.05;;
59338;SDS011;45117;50.960;5.500;2022-12-07T02:46:52;34.38;;;19.58;;
59338;SDS011;45117;50.960;5.500;2022-12-07T02:49:21;33.40;;;18.60;;
59338;SDS011;45117;50.960;5.500;2022-12-07T02:51:49;39.85;;;19.08;;
59338;SDS011;45117;50.960;5.500;2022-12-07T02:54:18;38.67;;;18.85;;
59338;SDS011;45117;50.960;5.500;2022-12-07T02:56:48;36.13;;;19.33;;
59338;SDS011;45117;50.960;5.500;2022-12-07T02:59:17;40.30;;;20.08;;
59338;SDS011;45117;50.960;5.500;2022-12-07T03:01:58;39.72;;;20.48;;
59338;SDS011;45117;50.960;5.500;2022-12-07T03:04:35;39.22;;;20.30;;
59338;SDS011;45117;50.960;5.500;2022-12-07T03:07:11;36.03;;;19.55;;
59338;SDS011;45117;50.960;5.500;2022-12-07T03:09:45;36.80;;;20.33;;
59338;SDS011;45117;50.960;5.500;2022-12-07T03:12:18;36.35;;;19.92;;
59338;SDS011;45117;50.960;5.500;2022-12-07T03:14:49;38.78;;;20.52;;
59338;SDS011;45117;50.960;5.500;2022-12-07T03:17:22;39.15;;;20.27;;
59338;SDS011;45117;50.960;5.500;2022-12-07T03:19:53;41.53;;;20.15;;
59338;SDS011;45117;50.960;5.500;2022-12-07T03:22:23;37.50;;;20.33;;
59338;SDS011;45117;50.960;5.500;2022-12-07T03:24:52;36.53;;;19.73;;
59338;SDS011;45117;50.960;5.500;2022-12-07T03:27:21;39.10;;;20.73;;
59338;SDS011;45117;50.960;5.500;2022-12-07T03:29:54;39.95;;;20.67;;
59338;SDS011;45117;50.960;5.500;2022-12-07T03:32:24;37.38;;;20.42;;
59338;SDS011;45117;50.960;5.500;2022-12-07T03:34:56;41.10;;;21.10;;
59338;SDS011;45117;50.960;5.500;2022-12-07T03:37:29;43.28;;;21.75;;
59338;SDS011;45117;50.960;5.500;2022-12-07T03:40:01;48.83;;;22.80;;
59338;SDS011;45117;50.960;5.500;2022-12-07T03:42:33;43.60;;;22.00;;
59338;SDS011;45117;50.960;5.500;2022-12-07T03:45:01;40.88;;;21.95;;
59338;SDS011;45117;50.960;5.500;2022-12-07T03:47:30;41.20;;;22.50;;
59338;SDS011;45117;50.960;5.500;2022-12-07T03:50:02;40.75;;;21.83;;
59338;SDS011;45117;50.960;5.500;2022-12-07T03:52:35;46.10;;;22.83;;
59338;SDS011;45117;50.960;5.500;2022-12-07T03:55:06;47.40;;;22.77;;
59338;SDS011;45117;50.960;5.500;2022-12-07T03:57:36;40.83;;;22.40;;
59338;SDS011;45117;50.960;5.500;2022-12-07T04:00:08;45.60;;;22.80;;
59338;SDS011;45117;50.960;5.500;2022-12-07T04:02:36;43.97;;;22.40;;
59338;SDS011;45117;50.960;5.500;2022-12-07T04:05:03;40.67;;;22.70;;
59338;SDS011;45117;50.960;5.500;2022-12-07T04:07:31;43.65;;;22.75;;
59338;SDS011;45117;50.960;5.500;2022-12-07T04:09:57;45.35;;;22.15;;
59338;SDS011;45117;50.960;5.500;2022-12-07T04:12:24;43.13;;;22.17;;
59338;SDS011;45117;50.960;5.500;2022-12-07T04:14:50;42.03;;;22.05;;
59338;SDS011;45117;50.960;5.500;2022-12-07T04:17:18;41.75;;;21.42;;
59338;SDS011;45117;50.960;5.500;2022-12-07T04:19:44;45.85;;;23.35;;
59338;SDS011;45117;50.960;5.500;2022-12-07T04:22:11;45.67;;;22.58;;
59338;SDS011;45117;50.960;5.500;2022-12-07T04:24:38;46.78;;;23.58;;
59338;SDS011;45117;50.960;5.500;2022-12-07T04:27:05;44.40;;;22.77;;
59338;SDS011;45117;50.960;5.500;2022-12-07T04:29:31;45.25;;;23.85;;
59338;SDS011;45117;50.960;5.500;2022-12-07T04:31:57;50.05;;;23.15;;
59338;SDS011;45117;50.960;5.500;2022-12-07T04:34:25;42.65;;;22.45;;
59338;SDS011;45117;50.960;5.500;2022-12-07T04:36:52;45.72;;;23.52;;
59338;SDS011;45117;50.960;5.500;2022-12-07T04:39:20;46.65;;;23.30;;
59338;SDS011;45117;50.960;5.500;2022-12-07T04:41:48;54.80;;;25.38;;
59338;SDS011;45117;50.960;5.500;2022-12-07T04:44:15;50.33;;;24.88;;
59338;SDS011;45117;50.960;5.500;2022-12-07T04:46:42;48.47;;;24.85;;
59338;SDS011;45117;50.960;5.500;2022-12-07T04:49:09;48.95;;;23.63;;
59338;SDS011;45117;50.960;5.500;2022-12-07T04:51:37;49.15;;;24.40;;
59338;SDS011;45117;50.960;5.500;2022-12-07T04:54:04;46.75;;;24.55;;
59338;SDS011;45117;50.960;5.500;2022-12-07T04:56:30;50.22;;;24.40;;
59338;SDS011;45117;50.960;5.500;2022-12-07T04:58:57;48.85;;;23.65;;
59338;SDS011;45117;50.960;5.500;2022-12-07T05:01:24;45.45;;;23.48;;
59338;SDS011;45117;50.960;5.500;2022-12-07T05:03:50;48.78;;;23.35;;
59338;SDS011;45117;50.960;5.500;2022-12-07T05:06:17;47.15;;;24.10;;
59338;SDS011;45117;50.960;5.500;2022-12-07T05:08:45;52.65;;;24.58;;
59338;SDS011;45117;50.960;5.500;2022-12-07T05:11:12;44.88;;;24.02;;
59338;SDS011;45117;50.960;5.500;2022-12-07T05:14:00;43.58;;;24.50;;
59338;SDS011;45117;50.960;5.500;2022-12-07T05:16:26;42.03;;;23.27;;
59338;SDS011;45117;50.960;5.500;2022-12-07T05:18:53;46.50;;;23.75;;
59338;SDS011;45117;50.960;5.500;2022-12-07T05:21:20;47.60;;;23.73;;
59338;SDS011;45117;50.960;5.500;2022-12-07T05:23:47;42.97;;;23.65;;
59338;SDS011;45117;50.960;5.500;2022-12-07T05:26:14;48.25;;;24.10;;
59338;SDS011;45117;50.960;5.500;2022-12-07T05:28:41;51.97;;;24.95;;
59338;SDS011;45117;50.960;5.500;2022-12-07T05:31:07;48.85;;;24.33;;
59338;SDS011;45117;50.960;5.500;2022-12-07T05:33:34;51.15;;;25.17;;
59338;SDS011;45117;50.960;5.500;2022-12-07T05:36:00;49.60;;;24.38;;
59338;SDS011;45117;50.960;5.500;2022-12-07T05:38:30;51.47;;;23.75;;
59338;SDS011;45117;50.960;5.500;2022-12-07T05:41:00;61.88;;;25.65;;
59338;SDS011;45117;50.960;5.500;2022-12-07T05:43:27;65.13;;;25.40;;
59338;SDS011;45117;50.960;5.500;2022-12-07T05:45:54;78.60;;;25.60;;
59338;SDS011;45117;50.960;5.500;2022-12-07T05:48:20;77.32;;;24.73;;
59338;SDS011;45117;50.960;5.500;2022-12-07T05:50:47;68.68;;;23.30;;
59338;SDS011;45117;50.960;5.500;2022-12-07T05:53:14;87.18;;;25.35;;
59338;SDS011;45117;50.960;5.500;2022-12-07T05:55:41;68.78;;;24.85;;
59338;SDS011;45117;50.960;5.500;2022-12-07T05:58:09;50.92;;;24.02;;
59338;SDS011;45117;50.960;5.500;2022-12-07T06:00:53;57.53;;;25.55;;
59338;SDS011;45117;50.960;5.500;2022-12-07T06:03:20;50.42;;;25.23;;
59338;SDS011;45117;50.960;5.500;2022-12-07T06:05:47;52.20;;;24.90;;
59338;SDS011;45117;50.960;5.500;2022-12-07T06:08:14;44.75;;;23.15;;
59338;SDS011;45117;50.960;5.500;2022-12-07T06:10:40;50.45;;;24.55;;
59338;SDS011;45117;50.960;5.500;2022-12-07T06:13:08;52.78;;;25.10;;
59338;SDS011;45117;50.960;5.500;2022-12-07T06:15:35;51.75;;;25.48;;
59338;SDS011;45117;50.960;5.500;2022-12-07T06:18:02;47.58;;;23.00;;
59338;SDS011;45117;50.960;5.500;2022-12-07T06:20:28;53.03;;;24.40;;
59338;SDS011;45117;50.960;5.500;2022-12-07T06:22:55;53.40;;;25.27;;
59338;SDS011;45117;50.960;5.500;2022-12-07T06:25:21;51.67;;;24.58;;
59338;SDS011;45117;50.960;5.500;2022-12-07T06:27:48;50.53;;;24.38;;
59338;SDS011;45117;50.960;5.500;2022-12-07T06:30:16;52.58;;;24.85;;
59338;SDS011;45117;50.960;5.500;2022-12-07T06:32:42;56.40;;;25.45;;
59338;SDS011;45117;50.960;5.500;2022-12-07T06:35:09;47.55;;;23.73;;
59338;SDS011;45117;50.960;5.500;2022-12-07T06:37:35;54.40;;;26.02;;
59338;SDS011;45117;50.960;5.500;2022-12-07T06:40:02;48.78;;;25.10;;
59338;SDS011;45117;50.960;5.500;2022-12-07T06:42:29;51.05;;;24.95;;
59338;SDS011;45117;50.960;5.500;2022-12-07T06:44:55;55.58;;;25.52;;
59338;SDS011;45117;50.960;5.500;2022-12-07T06:47:23;47.08;;;24.02;;
59338;SDS011;45117;50.960;5.500;2022-12-07T06:49:49;51.50;;;24.20;;
59338;SDS011;45117;50.960;5.500;2022-12-07T06:52:16;49.97;;;25.02;;
59338;SDS011;45117;50.960;5.500;2022-12-07T06:54:42;54.63;;;25.17;;
59338;SDS011;45117;50.960;5.500;2022-12-07T06:57:10;50.03;;;24.58;;
59338;SDS011;45117;50.960;5.500;2022-12-07T06:59:36;52.03;;;25.55;;
59338;SDS011;45117;50.960;5.500;2022-12-07T07:02:02;50.38;;;24.45;;
59338;SDS011;45117;50.960;5.500;2022-12-07T07:04:30;53.22;;;24.90;;
59338;SDS011;45117;50.960;5.500;2022-12-07T07:06:57;49.97;;;24.50;;
59338;SDS011;45117;50.960;5.500;2022-12-07T07:09:23;51.25;;;24.95;;
59338;SDS011;45117;50.960;5.500;2022-12-07T07:11:51;51.13;;;24.65;;
59338;SDS011;45117;50.960;5.500;2022-12-07T07:14:17;51.63;;;24.38;;
59338;SDS011;45117;50.960;5.500;2022-12-07T07:16:44;56.10;;;24.73;;
59338;SDS011;45117;50.960;5.500;2022-12-07T07:19:11;55.63;;;25.08;;
59338;SDS011;45117;50.960;5.500;2022-12-07T07:21:38;49.88;;;24.85;;
59338;SDS011;45117;50.960;5.500;2022-12-07T07:24:05;44.83;;;23.52;;
59338;SDS011;45117;50.960;5.500;2022-12-07T07:26:32;45.95;;;22.92;;
59338;SDS011;45117;50.960;5.500;2022-12-07T07:28:59;44.88;;;22.80;;
59338;SDS011;45117;50.960;5.500;2022-12-07T07:31:25;43.67;;;22.48;;
59338;SDS011;45117;50.960;5.500;2022-12-07T07:33:52;44.40;;;21.42;;
59338;SDS011;45117;50.960;5.500;2022-12-07T07:36:18;45.67;;;22.20;;
59338;SDS011;45117;50.960;5.500;2022-12-07T07:38:46;39.25;;;21.48;;
59338;SDS011;45117;50.960;5.500;2022-12-07T07:41:12;42.95;;;22.23;;
59338;SDS011;45117;50.960;5.500;2022-12-07T07:43:39;43.30;;;21.55;;
59338;SDS011;45117;50.960;5.500;2022-12-07T07:46:05;44.42;;;22.08;;
59338;SDS011;45117;50.960;5.500;2022-12-07T07:48:32;39.80;;;20.08;;
59338;SDS011;45117;50.960;5.500;2022-12-07T07:50:58;40.05;;;19.60;;
59338;SDS011;45117;50.960;5.500;2022-12-07T07:53:25;38.70;;;20.42;;
59338;SDS011;45117;50.960;5.500;2022-12-07T07:55:53;39.50;;;21.08;;
59338;SDS011;45117;50.960;5.500;2022-12-07T07:58:20;40.25;;;20.75;;
59338;SDS011;45117;50.960;5.500;2022-12-07T08:00:47;36.47;;;19.70;;
59338;SDS011;45117;50.960;5.500;2022-12-07T08:03:13;38.40;;;20.02;;
59338;SDS011;45117;50.960;5.500;2022-12-07T08:05:40;38.17;;;20.33;;
59338;SDS011;45117;50.960;5.500;2022-12-07T08:08:07;44.58;;;21.75;;
59338;SDS011;45117;50.960;5.500;2022-12-07T08:10:33;40.67;;;21.13;;
59338;SDS011;45117;50.960;5.500;2022-12-07T08:13:01;45.40;;;22.38;;
59338;SDS011;45117;50.960;5.500;2022-12-07T08:15:38;40.95;;;21.42;;
59338;SDS011;45117;50.960;5.500;2022-12-07T08:18:06;44.60;;;22.00;;
59338;SDS011;45117;50.960;5.500;2022-12-07T08:20:33;46.30;;;22.90;;
59338;SDS011;45117;50.960;5.500;2022-12-07T08:23:00;51.47;;;23.48;;
59338;SDS011;45117;50.960;5.500;2022-12-07T08:25:28;47.95;;;23.45;;
59338;SDS011;45117;50.960;5.500;2022-12-07T08:27:55;49.92;;;23.83;;
59338;SDS011;45117;50.960;5.500;2022-12-07T08:30:23;51.13;;;23.80;;
59338;SDS011;45117;50.960;5.500;2022-12-07T08:32:50;52.13;;;24.40;;
59338;SDS011;45117;50.960;5.500;2022-12-07T08:35:16;52.70;;;24.30;;
59338;SDS011;45117;50.960;5.500;2022-12-07T08:37:43;56.60;;;24.50;;
59338;SDS011;45117;50.960;5.500;2022-12-07T08:40:10;49.80;;;23.70;;
59338;SDS011;45117;50.960;5.500;2022-12-07T08:42:40;50.17;;;23.75;;
59338;SDS011;45117;50.960;5.500;2022-12-07T08:45:07;49.50;;;22.63;;
59338;SDS011;45117;50.960;5.500;2022-12-07T08:47:39;49.67;;;23.67;;
59338;SDS011;45117;50.960;5.500;2022-12-07T08:50:08;46.85;;;22.65;;
59338;SDS011;45117;50.960;5.500;2022-12-07T08:52:36;42.60;;;21.30;;
59338;SDS011;45117;50.960;5.500;2022-12-07T08:55:04;49.28;;;23.27;;
59338;SDS011;45117;50.960;5.500;2022-12-07T08:57:31;46.92;;;23.40;;
59338;SDS011;45117;50.960;5.500;2022-12-07T09:00:00;45.40;;;23.83;;
59338;SDS011;45117;50.960;5.500;2022-12-07T09:02:27;43.47;;;23.55;;
59338;SDS011;45117;50.960;5.500;2022-12-07T09:04:55;46.60;;;22.83;;
59338;SDS011;45117;50.960;5.500;2022-12-07T09:07:21;40.35;;;21.92;;
59338;SDS011;45117;50.960;5.500;2022-12-07T09:09:48;39.00;;;21.17;;
59338;SDS011;45117;50.960;5.500;2022-12-07T09:12:15;42.28;;;21.65;;
59338;SDS011;45117;50.960;5.500;2022-12-07T09:14:41;39.65;;;19.88;;
59338;SDS011;45117;50.960;5.500;2022-12-07T09:17:08;34.90;;;18.90;;
59338;SDS011;45117;50.960;5.500;2022-12-07T09:19:36;38.35;;;21.45;;
59338;SDS011;45117;50.960;5.500;2022-12-07T09:22:04;45.33;;;22.95;;
59338;SDS011;45117;50.960;5.500;2022-12-07T09:24:31;43.05;;;22.08;;
59338;SDS011;45117;50.960;5.500;2022-12-07T09:26:58;44.67;;;22.45;;
59338;SDS011;45117;50.960;5.500;2022-12-07T09:29:24;39.47;;;21.25;;
59338;SDS011;45117;50.960;5.500;2022-12-07T09:31:51;37.30;;;20.27;;
59338;SDS011;45117;50.960;5.500;2022-12-07T09:34:18;36.90;;;18.40;;
59338;SDS011;45117;50.960;5.500;2022-12-07T09:36:45;38.95;;;20.63;;
59338;SDS011;45117;50.960;5.500;2022-12-07T09:39:13;30.83;;;18.50;;
59338;SDS011;45117;50.960;5.500;2022-12-07T09:41:40;35.72;;;19.52;;
59338;SDS011;45117;50.960;5.500;2022-12-07T09:44:09;30.65;;;18.90;;
59338;SDS011;45117;50.960;5.500;2022-12-07T09:46:39;34.97;;;19.63;;
59338;SDS011;45117;50.960;5.500;2022-12-07T09:49:08;30.42;;;18.08;;
59338;SDS011;45117;50.960;5.500;2022-12-07T09:51:38;32.80;;;17.33;;
59338;SDS011;45117;50.960;5.500;2022-12-07T09:54:04;29.30;;;16.80;;
59338;SDS011;45117;50.960;5.500;2022-12-07T09:56:32;39.15;;;21.08;;
59338;SDS011;45117;50.960;5.500;2022-12-07T09:58:59;29.52;;;17.88;;
59338;SDS011;45117;50.960;5.500;2022-12-07T10:01:29;31.10;;;17.80;;
59338;SDS011;45117;50.960;5.500;2022-12-07T10:03:59;26.05;;;15.40;;
59338;SDS011;45117;50.960;5.500;2022-12-07T10:06:32;24.52;;;14.70;;
59338;SDS011;45117;50.960;5.500;2022-12-07T10:08:59;20.88;;;12.70;;
59338;SDS011;45117;50.960;5.500;2022-12-07T10:11:25;30.40;;;23.33;;
59338;SDS011;45117;50.960;5.500;2022-12-07T10:13:53;24.63;;;13.70;;
59338;SDS011;45117;50.960;5.500;2022-12-07T10:16:32;24.73;;;16.90;;
59338;SDS011;45117;50.960;5.500;2022-12-07T10:19:20;23.48;;;16.45;;
59338;SDS011;45117;50.960;5.500;2022-12-07T10:22:00;20.55;;;10.25;;
59338;SDS011;45117;50.960;5.500;2022-12-07T10:24:28;19.67;;;10.23;;
59338;SDS011;45117;50.960;5.500;2022-12-07T10:26:54;18.42;;;9.73;;
59338;SDS011;45117;50.960;5.500;2022-12-07T10:29:24;19.67;;;9.38;;
59338;SDS011;45117;50.960;5.500;2022-12-07T10:31:56;18.92;;;9.85;;
59338;SDS011;45117;50.960;5.500;2022-12-07T10:34:24;18.05;;;9.45;;
59338;SDS011;45117;50.960;5.500;2022-12-07T10:36:52;17.42;;;8.50;;
59338;SDS011;45117;50.960;5.500;2022-12-07T10:39:20;16.00;;;8.75;;
59338;SDS011;45117;50.960;5.500;2022-12-07T10:41:54;16.38;;;9.48;;
59338;SDS011;45117;50.960;5.500;2022-12-07T10:44:24;16.67;;;9.23;;
59338;SDS011;45117;50.960;5.500;2022-12-07T10:46:54;16.50;;;8.18;;
59338;SDS011;45117;50.960;5.500;2022-12-07T10:49:44;14.85;;;9.10;;
59338;SDS011;45117;50.960;5.500;2022-12-07T10:52:38;16.15;;;7.80;;
59338;SDS011;45117;50.960;5.500;2022-12-07T10:55:25;14.75;;;8.18;;
59338;SDS011;45117;50.960;5.500;2022-12-07T10:58:03;13.95;;;7.47;;
59338;SDS011;45117;50.960;5.500;2022-12-07T11:00:45;12.15;;;7.25;;
59338;SDS011;45117;50.960;5.500;2022-12-07T11:03:25;15.82;;;6.55;;
59338;SDS011;45117;50.960;5.500;2022-12-07T11:06:01;14.25;;;6.57;;
59338;SDS011;45117;50.960;5.500;2022-12-07T11:08:46;14.15;;;6.53;;
59338;SDS011;45117;50.960;5.500;2022-12-07T11:11:22;14.90;;;6.82;;
59338;SDS011;45117;50.960;5.500;2022-12-07T11:13:56;13.63;;;6.05;;
59338;SDS011;45117;50.960;5.500;2022-12-07T11:16:37;13.45;;;6.10;;
59338;SDS011;45117;50.960;5.500;2022-12-07T11:19:16;16.65;;;6.63;;
59338;SDS011;45117;50.960;5.500;2022-12-07T11:21:55;13.15;;;6.70;;
59338;SDS011;45117;50.960;5.500;2022-12-07T11:24:24;17.48;;;7.10;;
59338;SDS011;45117;50.960;5.500;2022-12-07T11:27:01;15.48;;;7.00;;
59338;SDS011;45117;50.960;5.500;2022-12-07T11:29:47;12.50;;;6.70;;
59338;SDS011;45117;50.960;5.500;2022-12-07T11:32:27;14.73;;;6.50;;
59338;SDS011;45117;50.960;5.500;2022-12-07T11:35:11;12.25;;;6.30;;
59338;SDS011;45117;50.960;5.500;2022-12-07T11:37:47;15.23;;;5.90;;
59338;SDS011;45117;50.960;5.500;2022-12-07T11:40:18;11.32;;;6.15;;
59338;SDS011;45117;50.960;5.500;2022-12-07T11:42:53;9.57;;;5.82;;
59338;SDS011;45117;50.960;5.500;2022-12-07T11:45:26;12.73;;;6.50;;
59338;SDS011;45117;50.960;5.500;2022-12-07T11:47:57;12.77;;;5.53;;
59338;SDS011;45117;50.960;5.500;2022-12-07T11:50:27;14.07;;;5.72;;
59338;SDS011;45117;50.960;5.500;2022-12-07T11:53:00;12.20;;;5.70;;
59338;SDS011;45117;50.960;5.500;2022-12-07T11:55:30;17.75;;;5.35;;
59338;SDS011;45117;50.960;5.500;2022-12-07T11:58:20;16.00;;;7.10;;
59338;SDS011;45117;50.960;5.500;2022-12-07T12:01:01;10.98;;;5.45;;
59338;SDS011;45117;50.960;5.500;2022-12-07T12:03:42;12.55;;;5.30;;
59338;SDS011;45117;50.960;5.500;2022-12-07T12:06:11;10.90;;;5.03;;
59338;SDS011;45117;50.960;5.500;2022-12-07T12:08:38;11.38;;;4.93;;
59338;SDS011;45117;50.960;5.500;2022-12-07T12:11:13;8.30;;;4.90;;
59338;SDS011;45117;50.960;5.500;2022-12-07T12:19:44;17.52;;;8.20;;
59338;SDS011;45117;50.960;5.500;2022-12-07T12:22:26;12.82;;;5.10;;
59338;SDS011;45117;50.960;5.500;2022-12-07T12:24:59;8.65;;;4.07;;
59338;SDS011;45117;50.960;5.500;2022-12-07T12:27:26;12.93;;;5.40;;
59338;SDS011;45117;50.960;5.500;2022-12-07T12:29:56;13.10;;;4.68;;
59338;SDS011;45117;50.960;5.500;2022-12-07T12:32:29;12.63;;;5.10;;
59338;SDS011;45117;50.960;5.500;2022-12-07T12:35:20;13.52;;;5.07;;
59338;SDS011;45117;50.960;5.500;2022-12-07T12:37:53;12.05;;;4.50;;
59338;SDS011;45117;50.960;5.500;2022-12-07T12:40:39;11.18;;;4.93;;
59338;SDS011;45117;50.960;5.500;2022-12-07T12:49:31;11.95;;;4.10;;
59338;SDS011;45117;50.960;5.500;2022-12-07T12:52:27;9.48;;;4.03;;
59338;SDS011;45117;50.960;5.500;2022-12-07T12:55:13;12.60;;;4.78;;
59338;SDS011;45117;50.960;5.500;2022-12-07T12:57:45;16.60;;;6.88;;
59338;SDS011;45117;50.960;5.500;2022-12-07T13:00:15;8.52;;;3.67;;
59338;SDS011;45117;50.960;5.500;2022-12-07T13:02:47;10.15;;;4.75;;
59338;SDS011;45117;50.960;5.500;2022-12-07T13:05:16;11.73;;;4.10;;
59338;SDS011;45117;50.960;5.500;2022-12-07T13:07:59;5.70;;;3.42;;
59338;SDS011;45117;50.960;5.500;2022-12-07T13:10:35;13.57;;;6.45;;
59338;SDS011;45117;50.960;5.500;2022-12-07T13:13:21;7.90;;;3.20;;
59338;SDS011;45117;50.960;5.500;2022-12-07T13:15:55;12.07;;;5.75;;
59338;SDS011;45117;50.960;5.500;2022-12-07T13:22:27;9.75;;;3.47;;
59338;SDS011;45117;50.960;5.500;2022-12-07T13:25:18;8.10;;;3.08;;
59338;SDS011;45117;50.960;5.500;2022-12-07T13:27:51;7.40;;;2.92;;
59338;SDS011;45117;50.960;5.500;2022-12-07T13:30:24;11.15;;;3.50;;
59338;SDS011;45117;50.960;5.500;2022-12-07T13:32:53;8.05;;;3.50;;
59338;SDS011;45117;50.960;5.500;2022-12-07T13:35:28;10.50;;;3.25;;
59338;SDS011;45117;50.960;5.500;2022-12-07T13:37:59;7.93;;;3.20;;
59338;SDS011;45117;50.960;5.500;2022-12-07T13:40:28;8.70;;;5.18;;
59338;SDS011;45117;50.960;5.500;2022-12-07T13:42:58;13.82;;;4.80;;
59338;SDS011;45117;50.960;5.500;2022-12-07T13:45:28;10.18;;;4.60;;
59338;SDS011;45117;50.960;5.500;2022-12-07T13:48:15;11.90;;;4.05;;
59338;SDS011;45117;50.960;5.500;2022-12-07T13:50:52;8.80;;;3.60;;
59338;SDS011;45117;50.960;5.500;2022-12-07T13:53:19;12.93;;;4.07;;
59338;SDS011;45117;50.960;5.500;2022-12-07T13:55:46;7.90;;;3.33;;
59338;SDS011;45117;50.960;5.500;2022-12-07T13:58:13;9.32;;;3.35;;
59338;SDS011;45117;50.960;5.500;2022-12-07T14:00:42;8.57;;;3.13;;
59338;SDS011;45117;50.960;5.500;2022-12-07T14:03:25;9.35;;;3.90;;
59338;SDS011;45117;50.960;5.500;2022-12-07T14:06:10;13.90;;;3.53;;
59338;SDS011;45117;50.960;5.500;2022-12-07T14:08:40;6.43;;;2.72;;
59338;SDS011;45117;50.960;5.500;2022-12-07T14:11:07;7.25;;;2.50;;
59338;SDS011;45117;50.960;5.500;2022-12-07T14:13:44;5.32;;;2.22;;
59338;SDS011;45117;50.960;5.500;2022-12-07T14:16:21;8.00;;;3.15;;
59338;SDS011;45117;50.960;5.500;2022-12-07T14:18:50;12.85;;;6.00;;
59338;SDS011;45117;50.960;5.500;2022-12-07T14:21:19;10.07;;;5.10;;
59338;SDS011;45117;50.960;5.500;2022-12-07T14:24:02;10.15;;;3.63;;
59338;SDS011;45117;50.960;5.500;2022-12-07T14:26:34;7.60;;;3.40;;
59338;SDS011;45117;50.960;5.500;2022-12-07T14:31:47;9.25;;;3.40;;
59338;SDS011;45117;50.960;5.500;2022-12-07T14:34:13;6.95;;;3.38;;
59338;SDS011;45117;50.960;5.500;2022-12-07T14:36:40;6.15;;;3.20;;
59338;SDS011;45117;50.960;5.500;2022-12-07T14:39:07;8.05;;;3.70;;
59338;SDS011;45117;50.960;5.500;2022-12-07T14:41:33;7.20;;;3.30;;
59338;SDS011;45117;50.960;5.500;2022-12-07T14:44:18;9.30;;;3.50;;
59338;SDS011;45117;50.960;5.500;2022-12-07T14:46:48;10.32;;;3.58;;
59338;SDS011;45117;50.960;5.500;2022-12-07T14:49:15;10.32;;;3.03;;
59338;SDS011;45117;50.960;5.500;2022-12-07T14:51:43;10.02;;;3.53;;
59338;SDS011;45117;50.960;5.500;2022-12-07T14:54:13;10.45;;;3.55;;
59338;SDS011;45117;50.960;5.500;2022-12-07T14:56:41;10.65;;;3.35;;
59338;SDS011;45117;50.960;5.500;2022-12-07T14:59:09;7.32;;;3.53;;
59338;SDS011;45117;50.960;5.500;2022-12-07T15:01:35;11.30;;;4.47;;
59338;SDS011;45117;50.960;5.500;2022-12-07T15:04:03;10.82;;;5.13;;